createdAt,value
2023-02-17T00:01:33.359Z,81.23
2023-02-17T00:04:01.822Z,81.26
2023-02-17T00:06:32.395Z,81.21
2023-02-17T00:09:00.761Z,81.15
2023-02-17T00:11:28.969Z,81.14
2023-02-17T00:13:57.224Z,81.10
2023-02-17T00:16:27.194Z,81.07
2023-02-17T00:18:57.861Z,81.06
2023-02-17T00:21:28.280Z,80.93
2023-02-17T00:23:57.972Z,80.88
2023-02-17T00:26:25.733Z,80.91
2023-02-17T00:28:53.704Z,80.84
2023-02-17T00:31:23.573Z,80.75
2023-02-17T00:33:54.383Z,80.71
2023-02-17T00:36:22.277Z,80.71
2023-02-17T00:38:50.185Z,80.73
2023-02-17T00:41:19.311Z,80.67
2023-02-17T00:43:48.193Z,80.63
2023-02-17T00:46:17.713Z,80.59
2023-02-17T00:48:46.652Z,80.56
2023-02-17T00:51:15.655Z,80.56
2023-02-17T00:53:43.967Z,80.48
2023-02-17T00:56:12.692Z,80.45
2023-02-17T00:58:41.656Z,80.47
2023-02-17T01:01:11.443Z,80.33
2023-02-17T01:03:41.051Z,80.24
2023-02-17T01:06:22.287Z,80.16
2023-02-17T01:08:50.774Z,80.22
2023-02-17T01:11:20.882Z,80.08
2023-02-17T01:13:49.096Z,80.05
2023-02-17T01:16:19.666Z,80.00
2023-02-17T01:18:48.124Z,80.06
2023-02-17T01:21:20.731Z,80.10
2023-02-17T01:23:50.203Z,80.12
2023-02-17T01:26:21.829Z,80.15
2023-02-17T01:28:50.967Z,80.21
2023-02-17T01:31:20.126Z,80.03
2023-02-17T01:33:48.414Z,79.96
2023-02-17T01:36:19.249Z,79.89
2023-02-17T01:38:47.627Z,80.00
2023-02-17T01:41:17.643Z,80.03
2023-02-17T01:44:10.620Z,79.93
2023-02-17T01:46:40.359Z,79.92
2023-02-17T01:49:38.558Z,79.82
2023-02-17T01:52:26.843Z,79.70
2023-02-17T01:54:59.974Z,79.67
2023-02-17T01:57:32.439Z,79.57
2023-02-17T02:00:00.842Z,79.63
2023-02-17T02:02:31.143Z,79.62
2023-02-17T02:05:00.525Z,79.49
2023-02-17T02:07:40.959Z,79.50
2023-02-17T02:10:10.678Z,79.51
2023-02-17T02:12:40.951Z,79.47
2023-02-17T02:15:19.456Z,79.41
2023-02-17T02:18:14.516Z,79.34
2023-02-17T02:21:19.824Z,79.27
2023-02-17T02:23:58.159Z,79.22
2023-02-17T02:27:04.237Z,79.14
2023-02-17T02:29:56.692Z,79.16
2023-02-17T02:32:30.197Z,79.14
2023-02-17T02:35:08.250Z,79.05
2023-02-17T02:37:43.547Z,79.00
2023-02-17T02:40:13.531Z,79.02
2023-02-17T02:42:42.317Z,79.05
2023-02-17T02:45:11.103Z,79.03
2023-02-17T02:47:45.184Z,79.00
2023-02-17T02:50:25.171Z,78.99
2023-02-17T02:53:04.768Z,78.96
2023-02-17T02:55:48.970Z,78.96
2023-02-17T02:58:43.105Z,78.93
2023-02-17T03:01:14.314Z,78.80
2023-02-17T03:04:00.919Z,78.75
2023-02-17T03:06:45.527Z,78.72
2023-02-17T03:09:21.019Z,78.70
2023-02-17T03:11:50.445Z,78.62
2023-02-17T03:14:20.975Z,78.55
2023-02-17T03:16:50.766Z,78.53
2023-02-17T03:19:22.584Z,78.51
2023-02-17T03:21:57.284Z,78.47
2023-02-17T03:24:25.624Z,78.47
2023-02-17T03:26:53.396Z,78.51
2023-02-17T03:29:21.229Z,78.58
2023-02-17T03:31:49.271Z,78.64
2023-02-17T03:34:17.518Z,78.75
2023-02-17T03:36:45.825Z,78.83
2023-02-17T03:39:13.600Z,78.89
2023-02-17T03:41:41.428Z,78.93
2023-02-17T03:44:09.254Z,79.01
2023-02-17T03:46:40.657Z,79.00
2023-02-17T03:49:08.868Z,78.96
2023-02-17T03:51:37.218Z,78.90
2023-02-17T03:54:05.192Z,78.83
2023-02-17T03:56:33.155Z,78.74
2023-02-17T03:59:00.978Z,78.70
2023-02-17T04:01:29.303Z,78.65
2023-02-17T04:03:57.791Z,78.54
2023-02-17T04:06:25.725Z,78.47
2023-02-17T04:08:53.598Z,78.41
2023-02-17T04:11:21.364Z,78.36
2023-02-17T04:13:49.155Z,78.30
2023-02-17T04:16:18.326Z,78.27
2023-02-17T04:18:46.878Z,78.18
2023-02-17T04:21:14.784Z,78.15
2023-02-17T04:23:42.633Z,78.16
2023-02-17T04:26:10.389Z,78.08
2023-02-17T04:28:40.920Z,78.05
2023-02-17T04:31:09.420Z,78.06
2023-02-17T04:33:38.073Z,78.14
2023-02-17T04:36:06.507Z,78.22
2023-02-17T04:38:34.916Z,78.29
2023-02-17T04:41:03.308Z,78.36
2023-02-17T04:43:31.631Z,78.46
2023-02-17T04:45:59.453Z,78.48
2023-02-17T04:48:27.238Z,78.51
2023-02-17T04:50:55.018Z,78.48
2023-02-17T04:53:23.289Z,78.48
2023-02-17T04:55:52.960Z,78.51
2023-02-17T04:58:21.261Z,78.52
2023-02-17T05:00:50.436Z,78.51
2023-02-17T05:03:19.485Z,78.50
2023-02-17T05:05:47.396Z,78.48
2023-02-17T05:08:15.256Z,78.45
2023-02-17T05:10:43.068Z,78.47
2023-02-17T05:13:10.852Z,78.49
2023-02-17T05:15:38.754Z,78.49
2023-02-17T05:18:06.590Z,78.46
2023-02-17T05:20:34.373Z,78.56
2023-02-17T05:23:02.143Z,78.57
2023-02-17T05:25:29.948Z,78.42
2023-02-17T05:27:57.730Z,78.31
2023-02-17T05:30:25.817Z,78.24
2023-02-17T05:32:53.863Z,78.17
2023-02-17T05:35:21.914Z,78.00
2023-02-17T05:37:49.702Z,77.95
2023-02-17T05:40:17.563Z,77.90
2023-02-17T05:42:45.399Z,77.93
2023-02-17T05:45:13.275Z,77.93
2023-02-17T05:47:41.026Z,77.96
2023-02-17T05:50:09.028Z,77.82
2023-02-17T05:52:36.847Z,77.89
2023-02-17T05:55:05.115Z,77.81
2023-02-17T05:57:33.159Z,77.76
2023-02-17T06:00:00.937Z,77.79
2023-02-17T06:02:28.847Z,77.81
2023-02-17T06:04:56.767Z,77.64
2023-02-17T06:07:24.748Z,77.64
2023-02-17T06:09:52.500Z,77.59
2023-02-17T06:12:20.282Z,77.57
2023-02-17T06:14:48.602Z,77.53
2023-02-17T06:17:17.072Z,77.51
2023-02-17T06:19:44.842Z,77.53
2023-02-17T06:22:12.585Z,77.46
2023-02-17T06:24:40.322Z,77.47
2023-02-17T06:27:08.096Z,77.51
2023-02-17T06:29:36.393Z,77.51
2023-02-17T06:32:05.040Z,77.46
2023-02-17T06:34:32.847Z,77.43
2023-02-17T06:37:00.649Z,77.36
2023-02-17T06:39:28.405Z,77.26
2023-02-17T06:41:56.180Z,77.16
2023-02-17T06:44:24.428Z,77.11
2023-02-17T06:46:52.852Z,77.03
2023-02-17T06:49:20.620Z,76.90
2023-02-17T06:51:48.433Z,76.87
2023-02-17T06:54:16.712Z,76.69
2023-02-17T06:56:44.492Z,76.52
2023-02-17T06:59:13.010Z,76.47
2023-02-17T07:01:41.274Z,76.26
2023-02-17T07:04:09.068Z,76.14
2023-02-17T07:06:36.893Z,76.10
2023-02-17T07:09:04.682Z,76.07
2023-02-17T07:11:33.014Z,75.95
2023-02-17T07:14:01.520Z,75.72
2023-02-17T07:16:29.989Z,75.60
2023-02-17T07:18:57.783Z,75.51
2023-02-17T07:21:25.622Z,75.30
2023-02-17T07:23:53.423Z,75.31
2023-02-17T07:26:21.171Z,75.14
2023-02-17T07:28:49.521Z,74.74
2023-02-17T07:31:18.539Z,74.44
2023-02-17T07:33:48.232Z,74.32
2023-02-17T07:36:17.757Z,74.27
2023-02-17T07:38:45.668Z,74.13
2023-02-17T07:41:16.457Z,73.93
2023-02-17T07:43:45.827Z,73.83
2023-02-17T07:46:14.824Z,73.84
2023-02-17T07:48:42.958Z,73.69
2023-02-17T07:51:16.949Z,73.79
2023-02-17T07:53:44.917Z,73.84
2023-02-17T07:56:15.493Z,73.74
2023-02-17T07:58:45.764Z,73.79
2023-02-17T08:01:21.041Z,73.72
2023-02-17T08:03:49.658Z,73.47
2023-02-17T08:06:23.598Z,73.38
2023-02-17T08:09:11.689Z,73.23
2023-02-17T08:12:06.433Z,73.00
2023-02-17T08:14:34.308Z,72.79
2023-02-17T08:17:02.699Z,72.79
2023-02-17T08:19:46.544Z,72.78
2023-02-17T08:22:17.647Z,72.83
2023-02-17T08:24:45.611Z,72.85
2023-02-17T08:27:17.352Z,72.94
2023-02-17T08:29:46.597Z,72.86
2023-02-17T08:32:16.626Z,72.67
2023-02-17T08:34:44.644Z,72.82
2023-02-17T08:37:12.933Z,72.86
2023-02-17T08:39:40.697Z,72.78
2023-02-17T08:42:08.569Z,72.59
2023-02-17T08:44:37.794Z,72.51
2023-02-17T08:47:07.243Z,72.50
2023-02-17T08:49:36.013Z,72.39
2023-02-17T08:52:04.204Z,72.33
2023-02-17T08:54:32.720Z,72.37
2023-02-17T08:57:00.597Z,72.23
2023-02-17T08:59:28.942Z,72.17
2023-02-17T09:01:57.875Z,72.31
2023-02-17T09:04:26.143Z,72.30
2023-02-17T09:06:58.546Z,72.27
2023-02-17T09:09:27.476Z,72.18
2023-02-17T09:11:57.736Z,72.13
2023-02-17T09:14:25.995Z,72.12
2023-02-17T09:16:57.539Z,72.23
2023-02-17T09:19:31.581Z,72.02
2023-02-17T09:21:59.398Z,72.00
2023-02-17T09:24:27.228Z,71.96
2023-02-17T09:26:55.198Z,71.70
2023-02-17T09:29:23.100Z,71.57
2023-02-17T09:31:51.657Z,71.77
2023-02-17T09:34:20.021Z,71.68
2023-02-17T09:36:48.169Z,71.47
2023-02-17T09:39:16.687Z,71.22
2023-02-17T09:41:55.418Z,71.18
2023-02-17T09:44:26.811Z,71.05
2023-02-17T09:47:03.140Z,70.85
2023-02-17T09:49:43.348Z,70.44
2023-02-17T09:52:16.886Z,70.52
2023-02-17T09:55:04.290Z,70.46
2023-02-17T09:58:02.414Z,70.29
2023-02-17T10:00:39.739Z,70.68
2023-02-17T10:03:31.302Z,70.81
2023-02-17T10:06:32.902Z,70.71
2023-02-17T10:09:14.038Z,70.83
2023-02-17T10:12:00.899Z,70.96
2023-02-17T10:14:43.915Z,70.62
2023-02-17T10:17:47.598Z,70.13
2023-02-17T10:20:18.151Z,70.16
2023-02-17T10:22:51.377Z,69.72
2023-02-17T10:25:33.834Z,69.64
2023-02-17T10:28:22.094Z,69.65
2023-02-17T10:31:04.271Z,69.37
2023-02-17T10:33:48.207Z,69.15
2023-02-17T10:36:18.973Z,68.73
2023-02-17T10:38:53.166Z,68.72
2023-02-17T10:41:27.208Z,68.42
2023-02-17T10:43:55.254Z,67.95
2023-02-17T10:46:31.673Z,68.07
2023-02-17T10:49:00.140Z,68.40
2023-02-17T10:51:31.215Z,68.68
2023-02-17T10:54:19.746Z,68.72
2023-02-17T10:56:52.304Z,68.67
2023-02-17T10:59:41.715Z,68.60
2023-02-17T11:02:17.812Z,68.86
2023-02-17T11:04:49.793Z,68.74
2023-02-17T11:07:22.522Z,68.38
2023-02-17T11:09:53.627Z,68.46
2023-02-17T11:12:26.878Z,68.14
2023-02-17T11:14:56.484Z,67.56
2023-02-17T11:17:45.231Z,67.75
2023-02-17T11:20:13.288Z,67.56
2023-02-17T11:22:47.639Z,67.41
2023-02-17T11:25:37.871Z,67.49
2023-02-17T11:28:11.321Z,67.82
2023-02-17T11:30:41.723Z,67.85
2023-02-17T11:33:15.523Z,67.81
2023-02-17T11:35:54.545Z,67.76
2023-02-17T11:38:25.937Z,67.72
2023-02-17T11:41:07.018Z,67.37
2023-02-17T11:43:36.206Z,67.43
2023-02-17T11:46:36.898Z,67.77
2023-02-17T11:49:35.192Z,68.04
2023-02-17T11:52:23.990Z,67.86
2023-02-17T11:55:19.808Z,68.26
2023-02-17T11:57:59.429Z,68.53
2023-02-17T12:00:54.492Z,68.56
2023-02-17T12:03:28.479Z,68.53
2023-02-17T12:06:13.904Z,68.66
2023-02-17T12:08:51.316Z,68.86
2023-02-17T12:11:32.292Z,68.99
2023-02-17T12:14:06.273Z,69.28
2023-02-17T12:16:52.938Z,69.45
2023-02-17T12:19:30.385Z,69.65
2023-02-17T12:22:22.603Z,69.77
2023-02-17T12:25:04.397Z,70.02
2023-02-17T12:28:10.920Z,70.33
2023-02-17T12:30:39.623Z,70.61
2023-02-17T12:33:35.146Z,71.10
2023-02-17T12:36:08.572Z,71.69
2023-02-17T12:38:49.854Z,72.22
2023-02-17T12:41:27.574Z,72.54
2023-02-17T12:44:00.358Z,72.96
2023-02-17T12:46:43.014Z,73.53
2023-02-17T12:49:20.250Z,73.82
2023-02-17T12:51:57.999Z,73.88
2023-02-17T12:54:38.642Z,73.96
2023-02-17T12:57:06.369Z,74.01
2023-02-17T12:59:40.359Z,74.16
2023-02-17T13:02:17.300Z,74.32
2023-02-17T13:04:49.353Z,74.82
2023-02-17T13:07:38.801Z,75.02
2023-02-17T13:10:08.101Z,74.94
2023-02-17T13:12:40.738Z,74.84
2023-02-17T13:15:46.049Z,74.75
2023-02-17T13:18:35.197Z,74.75
2023-02-17T13:21:33.704Z,74.72
2023-02-17T13:24:30.688Z,74.79
2023-02-17T13:27:10.637Z,74.81
2023-02-17T13:29:39.280Z,74.78
2023-02-17T13:32:12.364Z,74.81
2023-02-17T13:34:43.429Z,74.78
2023-02-17T13:37:33.368Z,74.91
2023-02-17T13:40:23.422Z,75.28
2023-02-17T13:42:54.564Z,75.38
2023-02-17T13:45:30.925Z,75.38
2023-02-17T13:48:01.439Z,75.52
2023-02-17T13:50:29.352Z,75.49
2023-02-17T13:53:00.405Z,75.65
2023-02-17T13:55:28.442Z,75.73
2023-02-17T13:57:59.367Z,75.67
2023-02-17T14:00:28.949Z,75.85
2023-02-17T14:03:19.223Z,76.00
2023-02-17T14:05:49.412Z,76.03
2023-02-17T14:08:23.749Z,76.04
2023-02-17T14:10:52.282Z,76.05
2023-02-17T14:13:20.508Z,76.25
2023-02-17T14:16:00.266Z,76.21
2023-02-17T14:18:36.807Z,76.25
2023-02-17T14:21:11.826Z,76.34
2023-02-17T14:23:49.175Z,76.43
2023-02-17T14:26:28.988Z,76.37
2023-02-17T14:29:05.137Z,76.42
2023-02-17T14:31:42.212Z,76.41
2023-02-17T14:34:37.954Z,76.41
2023-02-17T14:37:08.780Z,76.43
2023-02-17T14:39:37.209Z,76.43
2023-02-17T14:42:05.818Z,76.45
2023-02-17T14:44:34.270Z,76.49
2023-02-17T14:47:02.610Z,76.56
2023-02-17T14:49:30.474Z,76.82
2023-02-17T14:51:58.697Z,76.81
2023-02-17T14:54:30.373Z,76.85
2023-02-17T14:57:12.593Z,76.92
2023-02-17T14:59:40.904Z,77.18
2023-02-17T15:02:18.290Z,77.34
2023-02-17T15:04:47.388Z,77.55
2023-02-17T15:07:18.276Z,77.57
2023-02-17T15:09:48.536Z,77.70
2023-02-17T15:12:19.752Z,77.90
2023-02-17T15:14:48.507Z,78.00
2023-02-17T15:17:16.566Z,78.17
2023-02-17T15:19:44.996Z,78.26
2023-02-17T15:22:14.420Z,78.24
2023-02-17T15:24:42.758Z,78.18
2023-02-17T15:27:14.749Z,78.21
2023-02-17T15:29:43.383Z,78.27
2023-02-17T15:32:20.177Z,78.35
2023-02-17T15:34:48.534Z,78.50
2023-02-17T15:37:16.258Z,78.58
2023-02-17T15:39:44.967Z,78.62
2023-02-17T15:42:14.787Z,78.61
2023-02-17T15:44:47.757Z,78.72
2023-02-17T15:47:20.687Z,78.76
2023-02-17T15:49:48.519Z,78.75
2023-02-17T15:52:17.061Z,78.87
2023-02-17T15:54:45.503Z,78.89
2023-02-17T15:57:28.751Z,78.86
2023-02-17T16:00:00.618Z,78.93
2023-02-17T16:02:29.386Z,78.94
2023-02-17T16:04:57.336Z,78.88
2023-02-17T16:07:26.538Z,78.93
2023-02-17T16:09:56.000Z,78.90
2023-02-17T16:12:27.423Z,78.84
2023-02-17T16:14:56.910Z,78.82
2023-02-17T16:17:26.581Z,78.84
2023-02-17T16:19:56.592Z,78.79
2023-02-17T16:22:24.460Z,78.77
2023-02-17T16:24:52.342Z,78.72
2023-02-17T16:27:20.512Z,78.71
2023-02-17T16:29:49.215Z,78.66
2023-02-17T16:32:19.916Z,78.65
2023-02-17T16:34:51.204Z,78.61
2023-02-17T16:37:19.567Z,78.58
2023-02-17T16:39:47.518Z,78.56
